Time;durP1;ratioP1;P1;durP2;ratioP2;P2;SDS_P1;SDS_P2;PMS_P1;PMS_P2;Temp;Humidity;BMP_temperature;BMP_pressure;BME280_temperature;BME280_humidity;BME280_pressure;Samples;Min_cycle;Max_cycle;Signal;HPM_P1;HPM_P2
2022/02/07 00:01:38;;;;;;;0.57;0.30;;;4.50;90.40;;;;;;6181555;23;20437;-72
2022/02/07 00:04:05;;;;;;;1.98;0.77;;;4.50;90.40;;;;;;6181554;23;20009;-71
2022/02/07 00:06:31;;;;;;;1.42;0.60;;;4.40;90.40;;;;;;6181368;23;20001;-71
2022/02/07 00:08:56;;;;;;;1.73;0.40;;;4.40;90.50;;;;;;6183157;23;20006;-71
2022/02/07 00:11:22;;;;;;;2.65;0.63;;;4.40;90.50;;;;;;6155022;23;20452;-72
2022/02/07 00:13:48;;;;;;;2.22;0.52;;;4.50;90.50;;;;;;6183251;23;20039;-71
2022/02/07 00:16:14;;;;;;;1.98;0.50;;;4.50;90.50;;;;;;6182727;23;20047;-71
2022/02/07 00:18:40;;;;;;;2.50;0.60;;;4.50;90.40;;;;;;6182344;23;20319;-72
2022/02/07 00:21:06;;;;;;;5.65;0.60;;;4.50;90.40;;;;;;6158046;23;20016;-72
2022/02/07 00:23:32;;;;;;;1.38;0.55;;;4.50;90.40;;;;;;6181170;23;20337;-72
2022/02/07 00:25:58;;;;;;;4.38;1.48;;;4.50;90.40;;;;;;6181742;23;20036;-72
2022/02/07 00:28:24;;;;;;;5.80;0.63;;;4.60;90.30;;;;;;6181968;23;20326;-72
2022/02/07 00:30:50;;;;;;;2.92;0.57;;;4.70;90.20;;;;;;6183992;23;20027;-72
2022/02/07 00:33:16;;;;;;;2.92;0.60;;;4.70;90.10;;;;;;6180025;23;20017;-71
2022/02/07 00:35:42;;;;;;;3.05;0.70;;;4.70;90.10;;;;;;6182962;23;20095;-71
2022/02/07 00:38:12;;;;;;;2.53;0.70;;;4.60;90.10;;;;;;6155707;23;20033;-72
2022/02/07 00:40:44;;;;;;;2.10;0.75;;;4.50;90.00;;;;;;6184332;23;20009;-72
2022/02/07 00:43:25;;;;;;;2.00;0.77;;;4.50;90.10;;;;;;6158815;23;20013;-73
2022/02/07 00:45:54;;;;;;;2.30;0.57;;;4.50;90.10;;;;;;6157699;23;20005;-72
2022/02/07 00:48:23;;;;;;;2.22;0.52;;;4.40;90.00;;;;;;6184616;23;20001;-71
2022/02/07 00:50:49;;;;;;;3.35;0.70;;;4.40;90.00;;;;;;6183034;23;20001;-72
2022/02/07 00:53:15;;;;;;;2.22;0.60;;;4.40;90.10;;;;;;6156647;23;20323;-72
2022/02/07 00:55:41;;;;;;;2.55;0.82;;;4.40;89.90;;;;;;6157379;23;20100;-71
2022/02/07 00:58:07;;;;;;;3.42;0.70;;;4.40;89.90;;;;;;6179863;23;20009;-72
2022/02/07 01:00:33;;;;;;;1.83;0.65;;;4.40;89.90;;;;;;6182297;23;20016;-71
2022/02/07 01:02:59;;;;;;;6.47;0.88;;;4.40;89.70;;;;;;6183052;23;20005;-71
2022/02/07 01:05:26;;;;;;;4.00;0.50;;;4.50;89.60;;;;;;6157689;23;20108;-73
2022/02/07 01:07:52;;;;;;;3.33;0.80;;;4.40;89.40;;;;;;6183193;23;20023;-71
2022/02/07 01:10:26;;;;;;;4.25;0.85;;;4.20;89.50;;;;;;6182574;23;20465;-71
2022/02/07 01:13:11;;;;;;;2.88;0.47;;;4.10;89.70;;;;;;6157728;23;20012;-71
2022/02/07 01:21:30;;;;;;;1.73;0.50;;;4.00;90.10;;;;;;6182679;23;20017;-71
2022/02/07 01:24:02;;;;;;;2.03;0.55;;;3.90;90.10;;;;;;6183757;23;20556;-70
2022/02/07 01:48:08;;;;;;;1.50;0.45;;;3.90;90.10;;;;;;6183551;23;20311;-70
2022/02/07 01:51:00;;;;;;;2.85;0.60;;;3.90;90.10;;;;;;6183751;23;20052;-69
2022/02/07 01:56:01;;;;;;;2.53;0.55;;;3.90;90.10;;;;;;6183697;23;20429;-72
2022/02/07 01:58:27;;;;;;;2.97;0.65;;;3.90;90.10;;;;;;6183622;23;20092;-72
2022/02/07 02:00:53;;;;;;;5.10;1.00;;;4.10;90.10;;;;;;6157199;23;20048;-72
2022/02/07 02:03:19;;;;;;;4.93;0.68;;;4.00;90.00;;;;;;6183504;23;20383;-72
2022/02/07 02:05:45;;;;;;;2.67;0.50;;;4.00;90.00;;;;;;6183613;23;20109;-72
2022/02/07 02:08:13;;;;;;;2.05;0.50;;;4.00;90.00;;;;;;6183453;23;20108;-71
2022/02/07 02:10:44;;;;;;;2.47;0.50;;;4.00;90.00;;;;;;6183672;23;20032;-71
2022/02/07 02:13:15;;;;;;;0.60;0.40;;;4.10;90.00;;;;;;6184095;23;20080;-72
2022/02/07 02:16:06;;;;;;;;;;;4.10;89.90;;;;;;6184075;23;20005;-72
2022/02/07 02:18:45;;;;;;;1.55;0.40;;;4.10;89.90;;;;;;6161436;23;19935;-73
2022/02/07 02:37:18;;;;;;;5.72;0.93;;;4.10;89.80;;;;;;6182205;23;20021;-72
2022/02/07 02:47:41;;;;;;;2.88;0.80;;;4.40;89.30;;;;;;6183418;23;20448;-72
2022/02/07 02:50:26;;;;;;;2.60;0.60;;;4.40;89.20;;;;;;6183231;23;20059;-72
2022/02/07 02:52:52;;;;;;;2.63;0.70;;;4.30;89.10;;;;;;6183475;23;20033;-72
2022/02/07 02:55:18;;;;;;;3.22;0.60;;;4.30;89.20;;;;;;6183649;23;20012;-72
2022/02/07 02:57:44;;;;;;;1.08;0.40;;;4.30;89.40;;;;;;6183612;23;20001;-72
2022/02/07 03:00:10;;;;;;;5.10;0.75;;;4.20;89.40;;;;;;6183228;23;20009;-72
2022/02/07 03:02:36;;;;;;;2.80;0.88;;;4.30;89.60;;;;;;6183306;23;20005;-72
2022/02/07 03:05:02;;;;;;;2.90;0.52;;;4.20;89.60;;;;;;6183750;23;20491;-71
2022/02/07 03:07:28;;;;;;;2.15;0.43;;;4.20;89.70;;;;;;6183564;23;20456;-72
2022/02/07 03:09:56;;;;;;;3.95;1.02;;;4.20;89.70;;;;;;6183131;23;20001;-72
2022/02/07 03:12:22;;;;;;;5.82;1.00;;;4.30;89.80;;;;;;6183367;23;20004;-72
2022/02/07 03:14:49;;;;;;;2.35;0.50;;;4.30;89.60;;;;;;6183296;23;19997;-73
2022/02/07 03:17:14;;;;;;;2.42;1.00;;;4.30;89.50;;;;;;6183890;23;20080;-72
2022/02/07 03:19:40;;;;;;;3.90;1.00;;;4.30;89.40;;;;;;6183636;23;20027;-72
2022/02/07 03:22:07;;;;;;;3.00;0.80;;;4.40;89.50;;;;;;6182308;23;20005;-72
2022/02/07 03:24:34;;;;;;;2.33;0.55;;;4.30;89.40;;;;;;6181672;23;20016;-73
2022/02/07 03:27:00;;;;;;;1.60;0.50;;;4.30;89.40;;;;;;6182013;23;20016;-72
2022/02/07 03:29:26;;;;;;;2.80;0.90;;;4.30;89.40;;;;;;6183325;23;20084;-72
2022/02/07 03:31:53;;;;;;;4.00;0.82;;;4.30;89.50;;;;;;6156756;23;20059;-72
2022/02/07 03:34:19;;;;;;;1.25;0.68;;;4.30;89.40;;;;;;6183152;23;20421;-72
2022/02/07 03:36:45;;;;;;;2.42;0.45;;;4.30;89.40;;;;;;6183377;23;20036;-72
2022/02/07 03:39:11;;;;;;;2.72;0.50;;;4.20;89.30;;;;;;6156695;23;20453;-70
2022/02/07 03:41:37;;;;;;;3.72;0.70;;;4.30;89.50;;;;;;6179803;23;20013;-72
2022/02/07 03:44:03;;;;;;;1.80;0.60;;;4.30;89.50;;;;;;6183145;23;20009;-70
2022/02/07 03:46:29;;;;;;;4.20;0.70;;;4.30;89.50;;;;;;6183136;23;20334;-70
2022/02/07 03:48:55;;;;;;;4.18;0.95;;;4.20;89.60;;;;;;6180941;23;20004;-72
2022/02/07 03:51:21;;;;;;;2.88;0.80;;;4.20;89.60;;;;;;6182931;23;20001;-72
2022/02/07 03:53:47;;;;;;;3.35;0.80;;;4.30;89.60;;;;;;6183693;23;20425;-72
2022/02/07 03:56:13;;;;;;;2.60;0.80;;;4.30;89.40;;;;;;6183470;23;20036;-69
2022/02/07 03:58:39;;;;;;;3.92;0.85;;;4.40;89.50;;;;;;6183692;23;20333;-72
2022/02/07 04:01:05;;;;;;;6.68;1.25;;;4.40;89.30;;;;;;6183480;23;20009;-72
2022/02/07 04:03:33;;;;;;;5.95;1.30;;;4.50;89.30;;;;;;6183468;23;20011;-72
2022/02/07 04:06:03;;;;;;;3.83;0.88;;;4.50;89.10;;;;;;6182872;23;20087;-72
2022/02/07 04:08:34;;;;;;;3.70;1.00;;;4.50;88.90;;;;;;6181414;23;20080;-70
2022/02/07 04:11:17;;;;;;;3.43;1.10;;;4.70;88.80;;;;;;6183302;23;20005;-73
2022/02/07 04:13:49;;;;;;;5.43;1.00;;;4.70;88.70;;;;;;6183555;23;20005;-72
2022/02/07 04:16:15;;;;;;;6.00;1.10;;;4.80;88.70;;;;;;6183598;23;20009;-72
2022/02/07 04:19:02;;;;;;;3.50;1.00;;;4.80;88.50;;;;;;6183585;23;20005;-72
2022/02/07 04:21:29;;;;;;;2.67;0.68;;;4.80;88.50;;;;;;6182570;23;20017;-73
2022/02/07 04:23:55;;;;;;;3.33;0.98;;;4.90;88.50;;;;;;6182064;23;20008;-72
2022/02/07 04:26:21;;;;;;;3.90;0.80;;;4.90;88.50;;;;;;6182706;23;20068;-72
2022/02/07 04:28:47;;;;;;;2.88;0.68;;;4.80;88.30;;;;;;6182846;23;20005;-72
2022/02/07 04:31:13;;;;;;;4.50;1.35;;;4.90;88.30;;;;;;6183158;23;20381;-72
2022/02/07 04:33:38;;;;;;;5.78;1.10;;;5.00;88.20;;;;;;6182822;23;20008;-72
2022/02/07 04:36:04;;;;;;;3.80;0.90;;;5.10;88.20;;;;;;6183124;23;20080;-72
2022/02/07 04:38:31;;;;;;;4.43;0.80;;;5.10;88.00;;;;;;6181021;23;20020;-72
2022/02/07 04:40:56;;;;;;;4.07;0.85;;;5.10;88.00;;;;;;6180183;23;20009;-72
2022/02/07 04:43:22;;;;;;;2.80;1.00;;;5.20;87.90;;;;;;6183191;23;20020;-72
2022/02/07 04:45:59;;;;;;;3.05;0.90;;;5.20;87.90;;;;;;6183048;23;19997;-72
2022/02/07 04:48:44;;;;;;;8.80;1.17;;;5.30;87.90;;;;;;6183145;23;20313;-70
2022/02/07 04:51:38;;;;;;;6.88;1.40;;;5.40;87.70;;;;;;6181946;23;20080;-70
2022/02/07 04:54:13;;;;;;;6.30;1.52;;;5.40;87.40;;;;;;6182170;23;20013;-71
2022/02/07 04:59:20;;;;;;;5.20;1.52;;;5.60;87.00;;;;;;6179330;23;20013;-71
2022/02/07 05:02:00;;;;;;;4.60;1.10;;;5.60;86.90;;;;;;6183856;23;20032;-70
2022/02/07 05:04:32;;;;;;;3.33;1.10;;;5.60;86.80;;;;;;6184459;23;20001;-70
2022/02/07 05:14:59;;;;;;;4.32;1.00;;;5.50;87.30;;;;;;6184165;23;20009;-71
2022/02/07 05:17:25;;;;;;;3.58;0.70;;;5.50;87.40;;;;;;6184208;23;20007;-72
2022/02/07 05:19:51;;;;;;;3.80;0.98;;;5.50;87.40;;;;;;6183923;23;20084;-71
2022/02/07 05:22:17;;;;;;;8.75;1.40;;;5.50;87.40;;;;;;6184298;23;20365;-72
2022/02/07 05:24:43;;;;;;;5.25;1.20;;;5.60;87.40;;;;;;6182386;23;20005;-71
2022/02/07 05:27:08;;;;;;;5.90;1.40;;;5.60;87.10;;;;;;6184166;23;20015;-72
2022/02/07 05:29:34;;;;;;;6.68;1.20;;;5.60;87.00;;;;;;6179980;23;19997;-71
2022/02/07 05:32:02;;;;;;;4.85;1.20;;;5.70;87.00;;;;;;6184496;23;20096;-71
2022/02/07 05:34:27;;;;;;;6.00;1.10;;;5.70;87.00;;;;;;6184144;23;20453;-72
2022/02/07 05:36:56;;;;;;;5.95;1.20;;;5.70;87.00;;;;;;6183804;23;20055;-72
2022/02/07 05:39:22;;;;;;;3.58;1.02;;;5.80;87.00;;;;;;6184304;23;20035;-71
2022/02/07 05:41:48;;;;;;;4.35;1.00;;;5.70;86.90;;;;;;6183684;23;20445;-72
2022/02/07 05:44:14;;;;;;;4.28;1.05;;;5.70;86.90;;;;;;6184338;23;20434;-71
2022/02/07 05:46:40;;;;;;;2.08;0.70;;;5.70;87.00;;;;;;6184110;23;20441;-71
2022/02/07 05:49:06;;;;;;;3.42;0.70;;;5.70;87.00;;;;;;6184330;23;20001;-72
2022/02/07 05:51:32;;;;;;;3.10;0.75;;;5.70;87.00;;;;;;6184365;23;20036;-72
2022/02/07 05:53:58;;;;;;;1.95;0.68;;;5.80;87.10;;;;;;6184327;23;20005;-71
2022/02/07 05:56:24;;;;;;;2.35;0.68;;;5.70;87.20;;;;;;6184551;23;20013;-72
2022/02/07 05:58:50;;;;;;;4.07;0.90;;;5.60;87.30;;;;;;6183774;23;20001;-72
2022/02/07 06:01:16;;;;;;;3.63;0.82;;;5.60;87.30;;;;;;6184450;23;20059;-71
2022/02/07 06:03:41;;;;;;;7.13;1.25;;;5.60;87.30;;;;;;6184261;23;20005;-72
2022/02/07 06:06:07;;;;;;;3.33;0.80;;;5.60;87.30;;;;;;6183977;23;20008;-71
2022/02/07 06:08:33;;;;;;;5.57;1.10;;;5.60;87.30;;;;;;6184284;23;20001;-72
2022/02/07 06:11:02;;;;;;;5.72;1.20;;;5.50;87.40;;;;;;6181865;23;20498;-72
2022/02/07 06:13:27;;;;;;;3.75;1.05;;;5.50;87.50;;;;;;6184342;23;20025;-72
2022/02/07 06:15:54;;;;;;;4.07;1.25;;;5.50;87.60;;;;;;6183818;23;20316;-71
2022/02/07 06:18:20;;;;;;;4.93;0.98;;;5.50;87.60;;;;;;6183729;23;20132;-72
2022/02/07 06:20:49;;;;;;;3.85;0.93;;;5.50;87.60;;;;;;6183828;23;20017;-72
2022/02/07 06:23:15;;;;;;;3.70;0.98;;;5.50;87.60;;;;;;6182215;23;20005;-71
2022/02/07 06:25:40;;;;;;;5.13;1.17;;;5.50;87.60;;;;;;6184000;23;19997;-72
2022/02/07 06:28:06;;;;;;;3.33;1.20;;;5.40;87.70;;;;;;6183790;23;19997;-71
2022/02/07 06:30:32;;;;;;;5.05;1.10;;;5.50;87.70;;;;;;6184459;23;20093;-72
2022/02/07 06:32:58;;;;;;;5.32;1.00;;;5.40;87.70;;;;;;6184041;23;20088;-72
2022/02/07 06:35:23;;;;;;;4.95;0.88;;;5.40;87.80;;;;;;6183871;23;20033;-71
2022/02/07 06:37:51;;;;;;;3.35;0.93;;;5.40;87.90;;;;;;6183709;23;20441;-72
2022/02/07 06:40:17;;;;;;;5.60;1.10;;;5.40;87.90;;;;;;6182131;23;20127;-72
2022/02/07 06:42:43;;;;;;;1.45;0.50;;;5.30;87.90;;;;;;6184263;23;20009;-71
2022/02/07 06:45:09;;;;;;;3.25;0.50;;;5.40;88.10;;;;;;6183590;23;20031;-72
2022/02/07 06:47:35;;;;;;;1.75;0.57;;;5.30;88.10;;;;;;6183497;23;20005;-71
2022/02/07 06:50:01;;;;;;;3.05;0.60;;;5.20;88.20;;;;;;6183477;23;20008;-71
2022/02/07 06:52:26;;;;;;;3.65;0.82;;;5.20;88.20;;;;;;6183605;23;20421;-71
2022/02/07 06:54:52;;;;;;;2.22;0.60;;;5.20;88.40;;;;;;6156975;23;20080;-71
2022/02/07 06:57:21;;;;;;;1.95;0.40;;;5.20;88.50;;;;;;6183325;23;20087;-71
2022/02/07 06:59:48;;;;;;;2.40;0.50;;;5.20;88.50;;;;;;6183768;23;19997;-71
2022/02/07 07:02:13;;;;;;;2.65;0.70;;;5.10;88.50;;;;;;6179483;23;20032;-71
2022/02/07 07:04:40;;;;;;;2.03;0.60;;;5.10;88.60;;;;;;6183701;23;20048;-71
2022/02/07 07:07:06;;;;;;;2.55;0.75;;;5.00;88.60;;;;;;6183378;23;20080;-71
2022/02/07 07:09:33;;;;;;;3.30;0.90;;;5.10;88.70;;;;;;6183868;23;20032;-71
2022/02/07 07:12:03;;;;;;;2.45;0.95;;;5.10;88.80;;;;;;6183348;23;20055;-71
2022/02/07 07:14:40;;;;;;;3.03;0.60;;;5.00;88.70;;;;;;6184114;23;20001;-71
2022/02/07 07:17:06;;;;;;;2.75;0.60;;;5.00;88.70;;;;;;6183881;23;20001;-71
2022/02/07 07:19:32;;;;;;;1.90;0.55;;;5.00;88.80;;;;;;6183377;23;20374;-71
2022/02/07 07:21:59;;;;;;;3.22;0.80;;;5.00;88.90;;;;;;6183230;23;20024;-72
2022/02/07 07:24:25;;;;;;;2.45;0.60;;;4.80;88.90;;;;;;6181645;23;20005;-71
2022/02/07 07:26:51;;;;;;;0.68;0.30;;;4.90;89.10;;;;;;6183703;23;20001;-72
2022/02/07 07:29:22;;;;;;;1.90;0.73;;;4.80;89.10;;;;;;6183741;23;20055;-71
2022/02/07 07:31:53;;;;;;;3.08;0.88;;;4.80;89.20;;;;;;6182121;23;20084;-71
2022/02/07 07:34:19;;;;;;;3.88;0.70;;;4.70;89.10;;;;;;6183703;23;20496;-71
2022/02/07 07:36:46;;;;;;;1.95;0.50;;;4.80;89.30;;;;;;6183848;23;20028;-72
2022/02/07 07:39:13;;;;;;;2.25;0.68;;;4.70;89.30;;;;;;6182428;23;20001;-73
2022/02/07 07:41:42;;;;;;;4.70;0.80;;;4.70;89.30;;;;;;6183619;23;20092;-72
2022/02/07 07:44:08;;;;;;;0.95;0.30;;;4.70;89.30;;;;;;6183894;23;20005;-73
2022/02/07 07:46:36;;;;;;;1.80;0.57;;;4.70;89.30;;;;;;6183590;23;20111;-73
2022/02/07 07:49:09;;;;;;;2.75;0.85;;;4.70;89.40;;;;;;6183865;23;20004;-74
2022/02/07 07:51:44;;;;;;;3.25;0.63;;;4.70;89.40;;;;;;6181849;23;20009;-74
2022/02/07 07:54:20;;;;;;;1.85;0.63;;;4.60;89.30;;;;;;6182374;23;20005;-74
2022/02/07 08:02:10;;;;;;;2.88;0.65;;;4.70;89.40;;;;;;6183112;23;20017;-74
2022/02/07 08:04:38;;;;;;;1.60;0.60;;;4.70;89.30;;;;;;6183977;23;20001;-73
2022/02/07 08:07:06;;;;;;;1.77;0.55;;;4.80;89.40;;;;;;6181657;23;20001;-74
2022/02/07 08:09:44;;;;;;;2.40;0.57;;;4.80;89.40;;;;;;6179630;23;20008;-74
2022/02/07 08:12:12;;;;;;;2.17;0.90;;;4.80;89.20;;;;;;6181017;23;20044;-74
2022/02/07 08:14:38;;;;;;;3.97;0.63;;;4.90;89.30;;;;;;6183684;23;20040;-73
2022/02/07 08:17:06;;;;;;;3.25;0.70;;;4.80;89.20;;;;;;6183704;23;20005;-73
2022/02/07 08:19:33;;;;;;;3.88;0.80;;;4.80;89.20;;;;;;6183650;23;19998;-74
2022/02/07 08:22:00;;;;;;;2.40;0.60;;;4.90;89.30;;;;;;6182785;23;20041;-74
2022/02/07 08:24:26;;;;;;;4.50;0.98;;;4.90;89.20;;;;;;6182090;23;20005;-74
2022/02/07 08:26:54;;;;;;;3.00;0.80;;;5.00;89.20;;;;;;6183537;23;20001;-73
2022/02/07 08:29:20;;;;;;;4.22;0.77;;;5.00;89.00;;;;;;6182901;23;20001;-74
2022/02/07 08:31:46;;;;;;;2.10;0.70;;;5.10;88.90;;;;;;6155913;23;20025;-73
2022/02/07 08:34:12;;;;;;;4.95;1.10;;;5.10;88.80;;;;;;6183172;23;20079;-74
2022/02/07 08:36:38;;;;;;;2.20;0.70;;;5.10;88.80;;;;;;6157763;23;20012;-74
2022/02/07 08:39:04;;;;;;;2.97;0.90;;;5.10;88.80;;;;;;6184783;23;20008;-74
2022/02/07 08:41:31;;;;;;;3.92;1.13;;;5.20;88.90;;;;;;6182529;23;20023;-75
2022/02/07 08:43:57;;;;;;;2.75;0.70;;;5.20;88.90;;;;;;6184704;23;20001;-74
2022/02/07 08:46:23;;;;;;;2.67;0.82;;;5.20;88.80;;;;;;6184768;23;20437;-73
2022/02/07 08:48:49;;;;;;;3.72;0.77;;;5.30;88.80;;;;;;6184734;23;20001;-73
2022/02/07 08:51:16;;;;;;;2.25;0.60;;;5.30;88.80;;;;;;6184138;23;20001;-72
2022/02/07 08:53:44;;;;;;;2.50;0.50;;;5.40;88.80;;;;;;6184751;23;20417;-72
2022/02/07 08:56:11;;;;;;;4.22;0.80;;;5.40;88.80;;;;;;6158469;23;20422;-73
2022/02/07 08:58:42;;;;;;;2.67;0.70;;;5.40;88.70;;;;;;6182735;23;20017;-73
2022/02/07 09:01:17;;;;;;;4.90;0.80;;;5.60;88.80;;;;;;6182545;23;20511;-72
2022/02/07 09:04:09;;;;;;;3.42;0.80;;;5.60;88.70;;;;;;6184044;23;20013;-73
2022/02/07 09:06:37;;;;;;;4.63;0.95;;;5.60;88.60;;;;;;6183803;23;20009;-73
2022/02/07 09:09:10;;;;;;;2.35;0.77;;;5.80;89.20;;;;;;6184262;23;20013;-72
2022/02/07 09:11:38;;;;;;;2.30;0.80;;;5.80;88.40;;;;;;6184493;23;20484;-73
2022/02/07 09:14:09;;;;;;;4.05;1.13;;;5.90;88.30;;;;;;6183937;23;20365;-73
2022/02/07 09:16:35;;;;;;;2.38;0.77;;;6.10;88.20;;;;;;6183002;23;20009;-73
2022/02/07 09:19:02;;;;;;;5.75;1.20;;;6.10;88.10;;;;;;6184145;23;20039;-74
2022/02/07 09:21:29;;;;;;;3.67;1.10;;;6.20;88.00;;;;;;6183949;23;20005;-73
2022/02/07 09:23:57;;;;;;;4.30;1.30;;;6.20;87.80;;;;;;6183105;23;20075;-74
2022/02/07 09:26:23;;;;;;;8.43;1.77;;;6.20;87.70;;;;;;6182682;23;20051;-74
2022/02/07 09:28:49;;;;;;;4.57;1.10;;;6.30;87.70;;;;;;6184644;23;20076;-74
2022/02/07 09:31:15;;;;;;;4.95;1.38;;;6.30;87.60;;;;;;6184512;23;20637;-73
2022/02/07 09:33:44;;;;;;;6.57;1.38;;;6.40;87.60;;;;;;6184088;23;20541;-74
2022/02/07 09:36:11;;;;;;;4.32;1.45;;;6.50;87.70;;;;;;6183959;23;20007;-74
2022/02/07 09:38:37;;;;;;;3.90;0.95;;;6.50;87.70;;;;;;6182374;23;20013;-74
2022/02/07 09:41:03;;;;;;;4.43;1.00;;;6.50;87.70;;;;;;6183693;23;20100;-72
2022/02/07 09:43:32;;;;;;;4.93;0.98;;;6.60;87.60;;;;;;6183917;23;20017;-73
2022/02/07 09:46:08;;;;;;;4.25;0.90;;;6.70;87.60;;;;;;6183599;23;20004;-73
2022/02/07 09:48:38;;;;;;;3.00;0.85;;;6.60;87.50;;;;;;6134687;23;20009;-74
2022/02/07 09:51:07;;;;;;;4.47;1.25;;;6.70;87.50;;;;;;6183742;23;20005;-73
2022/02/07 09:53:34;;;;;;;4.35;0.93;;;6.80;87.50;;;;;;6184543;23;20067;-75
2022/02/07 09:56:00;;;;;;;6.10;1.52;;;6.80;87.30;;;;;;6180048;23;20012;-74
2022/02/07 09:58:26;;;;;;;4.85;1.10;;;6.90;87.20;;;;;;6184252;23;20001;-74
2022/02/07 10:00:57;;;;;;;4.93;1.25;;;7.00;87.10;;;;;;6157381;23;20009;-75
2022/02/07 10:03:29;;;;;;;5.30;1.20;;;7.00;87.00;;;;;;6182589;23;20044;-75
2022/02/07 10:06:00;;;;;;;;;;;7.00;87.00;;;;;;6184618;23;20309;-75
2022/02/07 10:11:21;;;;;;;8.15;1.48;;;7.30;86.70;;;;;;6183812;23;20255;-74
2022/02/07 10:16:42;;;;;;;7.22;1.48;;;7.40;86.00;;;;;;6183919;23;20036;-73
2022/02/07 10:19:22;;;;;;;6.65;1.35;;;7.50;85.90;;;;;;6184433;23;20005;-73
2022/02/07 10:35:45;;;;;;;6.22;1.45;;;7.40;86.30;;;;;;6182371;23;20502;-73
2022/02/07 10:38:19;;;;;;;8.18;1.60;;;7.40;86.30;;;;;;6182459;23;20016;-73
2022/02/07 10:43:45;;;;;;;2.80;1.00;;;7.40;86.30;;;;;;6183605;23;20041;-75
2022/02/07 10:46:15;;;;;;;5.65;1.30;;;7.40;86.30;;;;;;6183987;23;19997;-73
2022/02/07 10:48:48;;;;;;;4.03;0.90;;;7.50;86.30;;;;;;6179988;23;20101;-73
2022/02/07 10:51:19;;;;;;;4.22;1.33;;;7.60;86.20;;;;;;6182747;23;20037;-73
2022/02/07 10:53:50;;;;;;;5.18;1.38;;;7.60;86.00;;;;;;6184478;23;20005;-73
2022/02/07 10:56:18;;;;;;;4.93;0.95;;;7.60;85.80;;;;;;6182155;23;20002;-73
2022/02/07 10:58:45;;;;;;;4.70;1.23;;;7.70;85.80;;;;;;6182929;23;20373;-73
2022/02/07 11:01:18;;;;;;;4.13;1.52;;;7.80;85.60;;;;;;6184131;23;20064;-73
2022/02/07 11:03:49;;;;;;;4.10;1.08;;;7.80;85.50;;;;;;6183682;23;20040;-73
2022/02/07 11:06:21;;;;;;;5.88;1.25;;;7.80;85.20;;;;;;6180158;23;20048;-73
2022/02/07 11:09:02;;;;;;;;;;;7.80;85.10;;;;;;6184735;23;20028;-73
2022/02/07 11:11:44;;;;;;;4.20;0.90;;;7.70;85.40;;;;;;6183328;23;19928;-73
2022/02/07 11:20:00;;;;;;;5.88;0.90;;;7.70;85.20;;;;;;6183754;23;20044;-73
2022/02/07 11:22:41;;;;;;;6.95;1.05;;;7.60;85.30;;;;;;6183623;23;20017;-73
2022/02/07 11:25:26;;;;;;;2.65;0.98;;;7.50;85.20;;;;;;6182309;23;20005;-73
2022/02/07 11:27:57;;;;;;;4.60;0.88;;;7.40;85.40;;;;;;6180462;23;20001;-73
2022/02/07 11:30:46;;;;;;;2.67;0.90;;;7.40;85.60;;;;;;6182230;23;19997;-73
2022/02/07 11:33:36;;;;;;;3.63;0.90;;;7.30;85.60;;;;;;6157055;23;20009;-73
2022/02/07 11:36:11;;;;;;;4.93;1.00;;;7.30;85.50;;;;;;6181984;23;20609;-74
2022/02/07 11:38:56;;;;;;;5.28;1.20;;;7.40;85.50;;;;;;6184085;23;20002;-73
2022/02/07 11:41:21;;;;;;;2.85;0.95;;;7.40;85.40;;;;;;6183898;23;20012;-73
2022/02/07 11:43:47;;;;;;;4.20;1.02;;;7.40;85.20;;;;;;6181978;23;20433;-73
2022/02/07 11:46:13;;;;;;;4.15;1.00;;;7.50;85.10;;;;;;6183788;23;20091;-73
2022/02/07 11:48:43;;;;;;;7.60;1.08;;;7.50;84.90;;;;;;6181931;23;20011;-73
2022/02/07 11:51:22;;;;;;;2.28;0.80;;;7.50;84.80;;;;;;6181207;23;20011;-73
2022/02/07 11:53:52;;;;;;;2.80;0.73;;;7.50;84.80;;;;;;6181894;23;20001;-73
2022/02/07 11:56:25;;;;;;;3.55;0.82;;;7.50;84.80;;;;;;6184278;23;20012;-74
2022/02/07 11:59:18;;;;;;;1.88;0.40;;;7.50;84.80;;;;;;6181417;23;20005;-73
2022/02/07 12:01:58;;;;;;;1.83;0.65;;;7.50;85.00;;;;;;6183564;23;20009;-73
2022/02/07 12:04:26;;;;;;;2.65;0.73;;;7.60;84.80;;;;;;6183217;23;20005;-73
2022/02/07 12:07:18;;;;;;;4.35;0.85;;;7.70;84.60;;;;;;6183175;23;20008;-73
2022/02/07 12:10:03;;;;;;;1.23;0.55;;;7.70;84.30;;;;;;6184671;23;20433;-73
2022/02/07 12:12:48;;;;;;;1.75;0.70;;;7.70;84.10;;;;;;6186752;23;20001;-73
2022/02/07 12:15:36;;;;;;;2.95;1.00;;;7.80;84.10;;;;;;6186499;23;20062;-73
2022/02/07 12:18:20;;;;;;;6.30;1.23;;;7.80;83.80;;;;;;6184822;23;20329;-73
2022/02/07 12:20:48;;;;;;;6.40;1.38;;;7.90;83.30;;;;;;6182903;23;20006;-74
2022/02/07 12:23:17;;;;;;;6.22;1.30;;;8.00;83.20;;;;;;6186597;23;20035;-73
2022/02/07 12:25:49;;;;;;;4.50;1.10;;;8.00;83.10;;;;;;6187230;23;20025;-73
2022/02/07 12:31:18;;;;;;;5.95;1.27;;;8.00;83.00;;;;;;6186378;23;20013;-73
2022/02/07 12:34:07;;;;;;;7.35;1.55;;;8.20;83.10;;;;;;6179920;23;20009;-74
2022/02/07 12:36:35;;;;;;;4.20;1.17;;;8.30;82.80;;;;;;6185805;23;20445;-74
2022/02/07 12:39:05;;;;;;;3.95;0.90;;;8.30;82.20;;;;;;6185482;23;20009;-75
2022/02/07 12:41:33;;;;;;;4.20;0.98;;;8.30;82.10;;;;;;6186840;23;20084;-74
2022/02/07 12:44:01;;;;;;;5.15;1.17;;;8.30;82.10;;;;;;6186970;23;20005;-74
2022/02/07 12:46:29;;;;;;;4.35;1.13;;;8.30;82.30;;;;;;6186899;23;20087;-74
2022/02/07 12:49:01;;;;;;;3.72;0.88;;;8.40;82.30;;;;;;6185384;23;20016;-73
2022/02/07 12:51:33;;;;;;;3.17;0.70;;;8.40;82.20;;;;;;6186963;23;20016;-73
2022/02/07 12:53:59;;;;;;;3.28;0.95;;;8.60;82.00;;;;;;6186744;23;20001;-73
2022/02/07 12:56:28;;;;;;;5.43;1.05;;;8.40;81.70;;;;;;6186737;23;20009;-73
2022/02/07 12:58:54;;;;;;;5.38;0.98;;;8.40;81.70;;;;;;6186574;23;20005;-74
2022/02/07 13:01:23;;;;;;;2.58;0.68;;;8.20;81.70;;;;;;6159987;23;20040;-73
2022/02/07 13:03:52;;;;;;;2.53;0.63;;;8.00;82.00;;;;;;6186807;23;20084;-72
2022/02/07 13:06:22;;;;;;;4.97;0.90;;;8.00;82.20;;;;;;6183002;23;20008;-72
2022/02/07 13:08:49;;;;;;;3.50;0.80;;;7.90;82.40;;;;;;6186651;23;19997;-72
2022/02/07 13:11:25;;;;;;;3.15;0.80;;;7.80;82.50;;;;;;6186432;23;20437;-74
2022/02/07 13:13:54;;;;;;;3.20;0.77;;;7.80;82.70;;;;;;6185980;23;20814;-73
2022/02/07 13:16:21;;;;;;;3.88;0.90;;;7.80;82.60;;;;;;6186639;23;20076;-74
2022/02/07 13:18:48;;;;;;;4.70;1.30;;;7.90;82.40;;;;;;6186513;23;20012;-73
2022/02/07 13:21:17;;;;;;;4.35;0.95;;;7.90;82.00;;;;;;6184925;23;20005;-73
2022/02/07 13:23:46;;;;;;;4.93;1.10;;;7.90;81.90;;;;;;6183961;23;20340;-75
2022/02/07 13:26:14;;;;;;;5.82;1.30;;;7.90;81.70;;;;;;6181957;23;20321;-74
2022/02/07 13:28:42;;;;;;;3.53;1.02;;;7.90;81.40;;;;;;6181942;23;20368;-74
2022/02/07 13:31:09;;;;;;;1.70;0.80;;;7.90;81.40;;;;;;6184576;23;20020;-74
2022/02/07 13:33:52;;;;;;;3.47;1.17;;;7.90;81.50;;;;;;6184669;23;20028;-74
2022/02/07 13:36:27;;;;;;;2.63;0.90;;;7.80;81.30;;;;;;6184006;23;20001;-74
2022/02/07 13:39:04;;;;;;;2.58;0.80;;;7.90;81.50;;;;;;6182598;23;20088;-74
2022/02/07 13:41:29;;;;;;;3.47;0.98;;;7.90;81.40;;;;;;6182868;23;20079;-74
2022/02/07 13:43:59;;;;;;;3.22;1.08;;;7.90;81.40;;;;;;6184347;23;20372;-74
2022/02/07 13:46:28;;;;;;;4.93;1.00;;;7.90;81.20;;;;;;6184695;23;20005;-74
2022/02/07 13:48:56;;;;;;;3.80;1.08;;;7.90;81.20;;;;;;6184669;23;20072;-74
2022/02/07 13:51:22;;;;;;;2.00;0.50;;;7.90;81.00;;;;;;6180165;23;20005;-72
2022/02/07 13:53:48;;;;;;;3.35;0.98;;;8.00;81.00;;;;;;6184534;23;20135;-74
2022/02/07 13:56:14;;;;;;;5.63;1.00;;;8.00;81.00;;;;;;6182495;23;20091;-73
2022/02/07 13:58:40;;;;;;;3.53;0.88;;;8.00;81.00;;;;;;6183873;23;20005;-73
2022/02/07 14:01:08;;;;;;;3.90;0.90;;;8.00;81.00;;;;;;6183674;23;20005;-73
2022/02/07 14:03:44;;;;;;;3.40;0.73;;;8.00;80.90;;;;;;6182489;23;20005;-75
2022/02/07 14:06:21;;;;;;;3.97;1.02;;;8.00;80.70;;;;;;6183924;23;20085;-73
2022/02/07 14:08:52;;;;;;;5.40;1.25;;;8.10;80.20;;;;;;6184562;23;20009;-72
2022/02/07 14:11:23;;;;;;;2.97;0.75;;;8.10;80.20;;;;;;6184542;23;20024;-73
2022/02/07 14:13:52;;;;;;;2.60;0.90;;;8.10;80.30;;;;;;6179932;23;20005;-73
2022/02/07 14:16:21;;;;;;;4.30;0.80;;;8.20;80.50;;;;;;6183799;23;20136;-72
2022/02/07 14:18:48;;;;;;;2.75;0.80;;;8.30;80.20;;;;;;6184424;23;20005;-72
2022/02/07 14:21:17;;;;;;;4.90;1.20;;;8.30;80.10;;;;;;6183808;23;20021;-72
2022/02/07 14:23:46;;;;;;;2.80;0.90;;;8.40;79.70;;;;;;6184172;23;20012;-72
2022/02/07 14:26:16;;;;;;;2.95;0.80;;;8.40;79.60;;;;;;6182433;23;20017;-72
2022/02/07 14:28:43;;;;;;;3.95;1.52;;;8.30;79.40;;;;;;6179555;23;20077;-72
2022/02/07 14:31:11;;;;;;;4.78;1.23;;;8.30;79.40;;;;;;6182265;23;20062;-72
2022/02/07 14:33:38;;;;;;;3.05;1.20;;;8.30;79.20;;;;;;6183458;23;20001;-72
2022/02/07 14:36:04;;;;;;;3.80;0.77;;;8.20;79.30;;;;;;6184310;23;20099;-71
2022/02/07 14:38:32;;;;;;;3.75;0.90;;;8.30;79.50;;;;;;6184301;23;20012;-72
2022/02/07 14:40:58;;;;;;;3.17;0.77;;;8.30;79.60;;;;;;6184201;23;20072;-73
2022/02/07 14:43:29;;;;;;;2.42;0.90;;;8.30;79.60;;;;;;6183893;23;20009;-72
2022/02/07 14:46:07;;;;;;;3.63;1.00;;;8.30;79.20;;;;;;6158650;23;20028;-73
2022/02/07 14:48:36;;;;;;;3.25;1.33;;;8.40;78.90;;;;;;6183714;23;20084;-73
2022/02/07 14:51:06;;;;;;;2.55;0.85;;;8.30;78.60;;;;;;6180253;23;20010;-73